Long Prairie, MN (56347)

02:14 CDT le 23 mai 2015 (GMT -0500)
Long Prairie | | Change Station
CLOSE
Current Station
Aéroport
Location: Long Prairie,
Altitude: 1332 ft
Stations météo à proximité

Alt. 1332 ft 45.90 °N, 94.87 °W | Updated 19 minutes ago

Partiellement nuageux
Partiellement nuageux
50 ° F
Paraît 50 ° F
N
0
Vent Variable Vent de Nord

Aujourd'hui
Haut(e) -- | Bas -- ° F
--% Risque de précip.
Hier
Haut(e) -- | Bas -- ° F
Precip. -- pouce
5:39 AM 8:53 PM
Lune montante, 27% visible
Pression 30.20 pouce
Visibilité 10.0 Miles terrestres
Nuages Nuages épars 11000 ft
Point de rosée 37 ° F
Humidité 62%
Précipitations 0.00 pouce
Profondeur de la couche neigeuse Non disponible.
UV 0 sur 12
Pollen 8.30 sur 12
Qualité de l'air Non disponible.
Flu Activity Sporadic
METAR K14Y 230655Z AUTO 00000KT 10SM SCT110 10/03 A3020 RMK AO2

More Conditions Fewer Conditions

Pression 30.20 pouce
Visibilité 10.0 Miles terrestres
Nuages Nuages épars 11000 ft
Point de rosée 37 ° F
Humidité 62%
Précipitations 0.00 pouce
Profondeur de la couche neigeuse Non disponible.
UV 0 sur 12
Pollen 8.30 sur 12
Qualité de l'air Non disponible.
Flu Activity Sporadic
METAR K14Y 230655Z AUTO 00000KT 10SM SCT110 10/03 A3020 RMK AO2

More Conditions Fewer Conditions

10-Day Weather Forecast

Almanac

Astronomie

May. 23, 2015 Lever Coucher
Temps réel
Crépuscule civil
Crépuscule nautique
Crépuscule astronomique
Lune
Durée de lumière visible
Longueur du jour
Tomorrow will be .
, % of the Moon is Illuminated

Extrêmes aujourd'hui

State Highs State Lows

Community

WunderPhotos

Upload Photos

1,823,394 Photos téléchargées !

WunderBlogs® & News

Nearby

Qualité de l'air

  Qualité de l'air Indice de la qualité de l'air Polluant
Not available.

Épaisseur de neige

Station Depth Altitude

Activité sismique

Ville Distance Mag. Time & Date
Minimum magnitude displayed is 2.5.

Températures des eaux côtières

Lieu Température

Stations

Stations météo à proximité

Emplacement de la station Température Refroidissement éolien Point de rosée Humidité Vent Precip. Alt. Mise à jour Type